Time;durP1;ratioP1;P1;durP2;ratioP2;P2;SDS_P1;SDS_P2;PMS_P1;PMS_P2;Temp;Humidity;BMP_temperature;BMP_pressure;BME280_temperature;BME280_humidity;BME280_pressure;Samples;Min_cycle;Max_cycle;Signal;HPM_P1;HPM_P2
2022/03/16 00:00:36;;;;;;;62.00;28.30;;;;;;;;;;5100975;28;20043;-83
2022/03/16 00:03:22;;;;;;;76.13;32.55;;;;;;;;;;5114852;28;20036;-83
2022/03/16 00:06:07;;;;;;;87.35;39.00;;;;;;;;;;5117973;28;20039;-84
2022/03/16 00:08:53;;;;;;;76.60;37.13;;;;;;;;;;5117659;28;20044;-84
2022/03/16 00:11:38;;;;;;;74.88;36.15;;;;;;;;;;5117819;28;20047;-84
2022/03/16 00:14:24;;;;;;;75.75;37.60;;;;;;;;;;5117364;27;20044;-84
2022/03/16 00:17:10;;;;;;;85.82;40.17;;;;;;;;;;5117807;28;20392;-84
2022/03/16 00:19:55;;;;;;;151.95;56.88;;;;;;;;;;5117305;28;20039;-84
2022/03/16 00:22:41;;;;;;;122.95;49.97;;;;;;;;;;5117673;28;20040;-83
2022/03/16 00:25:30;;;;;;;125.20;50.53;;;;;;;;;;5117661;28;20407;-83
2022/03/16 00:28:16;;;;;;;107.90;45.85;;;;;;;;;;5108691;28;20040;-82
2022/03/16 00:31:04;;;;;;;96.82;42.08;;;;;;;;;;5108417;28;20048;-82
2022/03/16 00:33:49;;;;;;;100.13;44.55;;;;;;;;;;5108612;28;20043;-83
2022/03/16 00:36:35;;;;;;;100.93;41.65;;;;;;;;;;5117369;28;20480;-83
2022/03/16 00:39:21;;;;;;;85.70;40.35;;;;;;;;;;5102117;28;20055;-83
2022/03/16 00:42:07;;;;;;;93.55;41.58;;;;;;;;;;5116767;28;20043;-82
2022/03/16 00:44:54;;;;;;;79.22;35.80;;;;;;;;;;5108367;28;20408;-82
2022/03/16 00:47:39;;;;;;;56.85;27.30;;;;;;;;;;5116739;28;20412;-83
2022/03/16 00:50:24;;;;;;;103.60;42.58;;;;;;;;;;5117147;28;20040;-83
2022/03/16 00:53:11;;;;;;;56.38;25.35;;;;;;;;;;5094259;28;20043;-83
2022/03/16 00:56:03;;;;;;;67.55;32.75;;;;;;;;;;5102172;28;20036;-83
2022/03/16 00:58:48;;;;;;;50.38;26.98;;;;;;;;;;5093691;28;20059;-83
2022/03/16 01:01:34;;;;;;;73.55;34.90;;;;;;;;;;5108224;28;20491;-82
2022/03/16 01:04:19;;;;;;;83.75;35.70;;;;;;;;;;5116628;28;20484;-81
2022/03/16 01:07:05;;;;;;;70.18;32.10;;;;;;;;;;5116763;28;20044;-81
2022/03/16 01:09:52;;;;;;;88.57;36.95;;;;;;;;;;5108803;28;20039;-83
2022/03/16 01:12:37;;;;;;;76.20;35.90;;;;;;;;;;5118523;28;20047;-84
2022/03/16 01:15:23;;;;;;;78.00;37.65;;;;;;;;;;5105232;28;20392;-84
2022/03/16 01:18:09;;;;;;;86.90;37.78;;;;;;;;;;5118620;28;20400;-84
2022/03/16 01:20:54;;;;;;;75.28;36.88;;;;;;;;;;5111728;28;20043;-84
2022/03/16 01:23:40;;;;;;;74.60;35.10;;;;;;;;;;5120257;28;20043;-84
2022/03/16 01:26:25;;;;;;;74.32;35.00;;;;;;;;;;5117611;28;20039;-84
2022/03/16 01:29:11;;;;;;;64.75;33.25;;;;;;;;;;5117391;28;20044;-82
2022/03/16 01:31:56;;;;;;;74.55;35.83;;;;;;;;;;5107346;28;20043;-83
2022/03/16 01:34:43;;;;;;;83.60;37.95;;;;;;;;;;5122746;28;20036;-82
2022/03/16 01:37:30;;;;;;;89.63;39.30;;;;;;;;;;5116036;28;20051;-83
2022/03/16 01:40:15;;;;;;;83.32;39.53;;;;;;;;;;5107425;28;20040;-83
2022/03/16 01:43:01;;;;;;;85.38;40.33;;;;;;;;;;5116242;28;20039;-83
2022/03/16 01:45:51;;;;;;;97.80;41.05;;;;;;;;;;5115695;28;20047;-83
2022/03/16 01:48:36;;;;;;;107.13;42.55;;;;;;;;;;5107387;28;20039;-83
2022/03/16 01:51:22;;;;;;;114.93;45.78;;;;;;;;;;5126488;28;20043;-82
2022/03/16 01:54:08;;;;;;;88.90;39.22;;;;;;;;;;5123758;28;20047;-83
2022/03/16 01:56:54;;;;;;;95.38;39.83;;;;;;;;;;5107332;28;20040;-83
2022/03/16 01:59:40;;;;;;;83.78;38.70;;;;;;;;;;5107174;28;20499;-83
2022/03/16 02:02:26;;;;;;;80.30;37.78;;;;;;;;;;5106636;28;20039;-83
2022/03/16 02:05:11;;;;;;;85.28;38.53;;;;;;;;;;5115542;28;20492;-83
2022/03/16 02:07:58;;;;;;;90.82;38.72;;;;;;;;;;5115256;28;20048;-83
2022/03/16 02:10:44;;;;;;;90.25;39.40;;;;;;;;;;5115445;28;20040;-83
2022/03/16 02:13:29;;;;;;;90.63;39.92;;;;;;;;;;5115437;28;20047;-83
2022/03/16 02:16:15;;;;;;;97.93;42.60;;;;;;;;;;5099921;28;20036;-83
2022/03/16 02:19:00;;;;;;;128.65;52.70;;;;;;;;;;5115384;28;20045;-83
2022/03/16 02:21:46;;;;;;;122.35;52.03;;;;;;;;;;5114906;28;20035;-83
2022/03/16 02:24:31;;;;;;;119.55;49.55;;;;;;;;;;5106645;28;20043;-82
2022/03/16 02:27:17;;;;;;;111.13;47.95;;;;;;;;;;5114752;28;20039;-84
2022/03/16 02:30:03;;;;;;;103.80;45.28;;;;;;;;;;5114577;28;20035;-83
2022/03/16 02:32:49;;;;;;;104.05;46.60;;;;;;;;;;5114887;28;20485;-84
2022/03/16 02:35:35;;;;;;;108.13;46.53;;;;;;;;;;5114828;28;20048;-84
2022/03/16 02:38:20;;;;;;;93.07;45.15;;;;;;;;;;5114821;28;20039;-83
2022/03/16 02:41:06;;;;;;;113.03;46.38;;;;;;;;;;5115030;28;20043;-83
2022/03/16 02:43:52;;;;;;;102.53;46.55;;;;;;;;;;5106015;28;20051;-83
2022/03/16 02:46:37;;;;;;;92.20;43.47;;;;;;;;;;5114649;28;20488;-83
2022/03/16 02:49:22;;;;;;;83.80;39.58;;;;;;;;;;5114880;28;20043;-83
2022/03/16 02:52:09;;;;;;;85.90;41.70;;;;;;;;;;5116042;28;20047;-82
2022/03/16 02:54:54;;;;;;;96.90;44.03;;;;;;;;;;5120850;28;20043;-82
2022/03/16 02:57:40;;;;;;;100.03;45.35;;;;;;;;;;5120653;28;20039;-83
2022/03/16 03:00:26;;;;;;;114.90;51.58;;;;;;;;;;5121206;28;20035;-83
2022/03/16 03:03:12;;;;;;;106.88;47.72;;;;;;;;;;5120617;28;20051;-82
2022/03/16 03:05:57;;;;;;;80.70;41.03;;;;;;;;;;5120480;28;20040;-82
2022/03/16 03:08:44;;;;;;;89.75;39.58;;;;;;;;;;5121133;28;20039;-82
2022/03/16 03:11:29;;;;;;;82.85;39.63;;;;;;;;;;5120260;28;20404;-82
2022/03/16 03:14:15;;;;;;;72.53;36.38;;;;;;;;;;5115971;28;20043;-83
2022/03/16 03:17:02;;;;;;;72.80;36.60;;;;;;;;;;5114063;28;20444;-82
2022/03/16 03:19:48;;;;;;;77.15;36.72;;;;;;;;;;5114114;28;20036;-84
2022/03/16 03:22:33;;;;;;;73.93;38.30;;;;;;;;;;5114181;28;20035;-84
2022/03/16 03:25:18;;;;;;;80.88;37.92;;;;;;;;;;5114078;28;20047;-83
2022/03/16 03:28:04;;;;;;;77.30;37.00;;;;;;;;;;5114569;28;20043;-84
2022/03/16 03:30:50;;;;;;;76.10;35.92;;;;;;;;;;5114072;28;20047;-84
2022/03/16 03:33:35;;;;;;;78.25;38.75;;;;;;;;;;5114337;28;20051;-84
2022/03/16 03:36:20;;;;;;;87.53;40.67;;;;;;;;;;5114098;28;20043;-83
2022/03/16 03:39:06;;;;;;;93.10;44.67;;;;;;;;;;5117562;28;20040;-83
2022/03/16 03:41:52;;;;;;;85.47;45.83;;;;;;;;;;5118011;28;20043;-82
2022/03/16 03:44:37;;;;;;;89.70;45.08;;;;;;;;;;5118125;28;20048;-82
2022/03/16 03:47:22;;;;;;;89.40;42.92;;;;;;;;;;5118058;28;20036;-82
2022/03/16 03:50:08;;;;;;;90.75;42.75;;;;;;;;;;5118147;28;20044;-82
2022/03/16 03:52:53;;;;;;;83.00;40.83;;;;;;;;;;5117981;28;20048;-83
2022/03/16 03:55:39;;;;;;;59.47;28.67;;;;;;;;;;5118019;28;20167;-81
2022/03/16 03:58:24;;;;;;;49.22;26.27;;;;;;;;;;5117919;28;20400;-81
2022/03/16 04:01:10;;;;;;;45.83;26.08;;;;;;;;;;5117631;28;20044;-81
2022/03/16 04:03:55;;;;;;;46.13;25.02;;;;;;;;;;5124918;28;20043;-81
2022/03/16 04:06:41;;;;;;;44.50;23.02;;;;;;;;;;5109334;28;20039;-82
2022/03/16 04:09:27;;;;;;;39.45;23.45;;;;;;;;;;5127577;28;20051;-82
2022/03/16 04:12:12;;;;;;;46.53;23.58;;;;;;;;;;5131079;28;20047;-82
2022/03/16 04:14:58;;;;;;;45.10;23.77;;;;;;;;;;5117199;28;20043;-82
2022/03/16 04:17:43;;;;;;;41.72;21.33;;;;;;;;;;5117435;28;20044;-82
2022/03/16 04:20:28;;;;;;;42.40;21.70;;;;;;;;;;5117620;28;20036;-82
2022/03/16 04:23:13;;;;;;;37.28;19.77;;;;;;;;;;5117814;28;20044;-82
2022/03/16 04:25:59;;;;;;;38.58;19.83;;;;;;;;;;5117440;28;20036;-82
2022/03/16 04:28:45;;;;;;;31.92;18.13;;;;;;;;;;5117407;28;20039;-82
2022/03/16 04:31:31;;;;;;;42.63;22.10;;;;;;;;;;5117528;28;20468;-82
2022/03/16 04:34:16;;;;;;;44.95;23.80;;;;;;;;;;5101833;28;20040;-83
2022/03/16 04:37:01;;;;;;;42.55;23.35;;;;;;;;;;5117064;28;20048;-82
2022/03/16 04:39:47;;;;;;;40.20;23.38;;;;;;;;;;5117993;28;20392;-83
2022/03/16 04:42:33;;;;;;;46.55;25.38;;;;;;;;;;5116490;28;20043;-82
2022/03/16 04:45:18;;;;;;;55.50;29.33;;;;;;;;;;5108414;28;20492;-83
2022/03/16 04:48:03;;;;;;;59.85;31.75;;;;;;;;;;5116651;28;20035;-83
2022/03/16 04:50:49;;;;;;;57.78;30.88;;;;;;;;;;5115891;28;20048;-83
2022/03/16 04:53:34;;;;;;;56.92;32.72;;;;;;;;;;5116702;28;20524;-83
2022/03/16 04:56:20;;;;;;;68.82;34.30;;;;;;;;;;5116575;28;20162;-83
2022/03/16 04:59:05;;;;;;;57.78;30.65;;;;;;;;;;5116226;28;20039;-82
2022/03/16 05:01:51;;;;;;;69.65;33.55;;;;;;;;;;5116158;28;20035;-83
2022/03/16 05:04:36;;;;;;;101.15;48.17;;;;;;;;;;5116444;28;20044;-82
2022/03/16 05:07:22;;;;;;;91.93;42.60;;;;;;;;;;5123237;28;20043;-82
2022/03/16 05:10:09;;;;;;;69.00;33.90;;;;;;;;;;5116105;28;20048;-83
2022/03/16 05:12:54;;;;;;;92.55;43.90;;;;;;;;;;5116242;28;20047;-83
2022/03/16 05:15:40;;;;;;;88.85;40.63;;;;;;;;;;5115754;28;20404;-84
2022/03/16 05:18:26;;;;;;;90.18;41.28;;;;;;;;;;5116136;28;20039;-84
2022/03/16 05:21:13;;;;;;;82.55;39.25;;;;;;;;;;5115824;28;20039;-83
2022/03/16 05:23:59;;;;;;;101.00;41.50;;;;;;;;;;5116495;28;20044;-84
2022/03/16 05:26:44;;;;;;;79.63;37.88;;;;;;;;;;5116246;28;20036;-84
2022/03/16 05:29:30;;;;;;;77.32;36.92;;;;;;;;;;5115563;28;20051;-84
2022/03/16 05:32:15;;;;;;;68.20;33.40;;;;;;;;;;5115793;28;20048;-84
2022/03/16 05:35:01;;;;;;;78.78;34.13;;;;;;;;;;5115971;28;20469;-83
2022/03/16 05:37:46;;;;;;;56.80;32.28;;;;;;;;;;5115316;28;20039;-83
2022/03/16 05:40:32;;;;;;;66.53;32.78;;;;;;;;;;5115619;28;20044;-83
2022/03/16 05:43:18;;;;;;;68.03;29.65;;;;;;;;;;5115518;28;20044;-83
2022/03/16 05:46:06;;;;;;;86.45;38.10;;;;;;;;;;5115471;28;20047;-84
2022/03/16 05:48:50;;;;;;;85.65;40.83;;;;;;;;;;5116208;28;20043;-87
2022/03/16 05:51:35;;;;;;;89.40;38.88;;;;;;;;;;5115863;28;20477;-87
2022/03/16 05:54:21;;;;;;;78.20;34.80;;;;;;;;;;5115410;28;20408;-87
2022/03/16 05:57:07;;;;;;;76.03;33.08;;;;;;;;;;5115756;28;20048;-86
2022/03/16 05:59:52;;;;;;;108.43;38.10;;;;;;;;;;5115675;28;20484;-84
2022/03/16 06:02:38;;;;;;;70.43;31.27;;;;;;;;;;5115504;28;20468;-84
2022/03/16 06:05:24;;;;;;;77.63;33.25;;;;;;;;;;5115155;28;20047;-84
2022/03/16 06:08:09;;;;;;;87.13;39.38;;;;;;;;;;5115388;28;20039;-83
2022/03/16 06:10:54;;;;;;;97.68;39.25;;;;;;;;;;5115113;28;20039;-83
2022/03/16 06:13:40;;;;;;;98.47;41.95;;;;;;;;;;5114769;28;20106;-82
2022/03/16 06:16:25;;;;;;;87.00;40.25;;;;;;;;;;5114943;28;20043;-83
2022/03/16 06:19:11;;;;;;;111.78;43.88;;;;;;;;;;5114505;28;20039;-83
2022/03/16 06:21:56;;;;;;;217.68;89.85;;;;;;;;;;5105869;28;20051;-83
2022/03/16 06:24:41;;;;;;;60.53;25.88;;;;;;;;;;5114404;28;20484;-82
2022/03/16 06:27:27;;;;;;;46.85;19.38;;;;;;;;;;5123202;28;20388;-82
2022/03/16 06:30:13;;;;;;;47.47;22.73;;;;;;;;;;5128900;28;20047;-83
2022/03/16 06:32:58;;;;;;;54.63;27.20;;;;;;;;;;5115246;28;20044;-84
2022/03/16 06:35:44;;;;;;;54.95;28.00;;;;;;;;;;5114233;28;20048;-83
2022/03/16 06:38:30;;;;;;;41.58;23.77;;;;;;;;;;5114154;28;20039;-83
2022/03/16 06:41:15;;;;;;;43.22;24.58;;;;;;;;;;5085069;28;20051;-83
2022/03/16 06:44:00;;;;;;;43.15;24.88;;;;;;;;;;5114186;28;20039;-82
2022/03/16 06:46:48;;;;;;;49.22;25.02;;;;;;;;;;5114164;28;20040;-83
2022/03/16 06:49:34;;;;;;;49.67;29.67;;;;;;;;;;5114462;28;20048;-83
2022/03/16 06:52:19;;;;;;;66.75;36.53;;;;;;;;;;5114200;28;20043;-84
2022/03/16 06:55:06;;;;;;;74.57;38.40;;;;;;;;;;5114338;28;20040;-85
2022/03/16 06:57:51;;;;;;;73.70;37.83;;;;;;;;;;5114566;28;20468;-86
2022/03/16 07:00:37;;;;;;;57.70;31.23;;;;;;;;;;5114227;28;20061;-87
2022/03/16 07:03:23;;;;;;;56.97;32.97;;;;;;;;;;5113988;28;20043;-87
2022/03/16 07:06:10;;;;;;;68.32;36.17;;;;;;;;;;5113867;28;20043;-87
2022/03/16 07:08:54;;;;;;;85.50;40.65;;;;;;;;;;5114345;28;20039;-88
2022/03/16 07:11:39;;;;;;;71.68;36.00;;;;;;;;;;5091144;28;20051;-85
2022/03/16 07:14:31;;;;;;;81.82;38.17;;;;;;;;;;5104108;28;20048;-85
2022/03/16 07:17:18;;;;;;;78.68;39.22;;;;;;;;;;5113994;28;20048;-84
2022/03/16 07:20:06;;;;;;;99.20;43.83;;;;;;;;;;5113776;28;20485;-84
2022/03/16 07:23:07;;;;;;;121.90;50.63;;;;;;;;;;5113823;28;20039;-84
2022/03/16 07:25:52;;;;;;;84.82;42.60;;;;;;;;;;5113526;28;20040;-84
2022/03/16 07:28:38;;;;;;;93.85;41.97;;;;;;;;;;5112836;28;20044;-83
2022/03/16 07:31:23;;;;;;;89.72;43.88;;;;;;;;;;5113804;28;20048;-84
2022/03/16 07:34:09;;;;;;;105.88;48.00;;;;;;;;;;5113924;28;20044;-84
2022/03/16 07:36:54;;;;;;;90.57;43.90;;;;;;;;;;5098119;28;20044;-86
2022/03/16 07:39:40;;;;;;;74.03;39.72;;;;;;;;;;5111976;28;20059;-86
2022/03/16 07:42:27;;;;;;;67.50;34.88;;;;;;;;;;5111584;28;20035;-85
2022/03/16 07:45:15;;;;;;;71.13;34.60;;;;;;;;;;5112820;28;20047;-84
2022/03/16 07:48:02;;;;;;;70.30;34.20;;;;;;;;;;5113636;28;20044;-82
2022/03/16 07:50:48;;;;;;;77.07;33.10;;;;;;;;;;5113732;28;20484;-83
2022/03/16 07:53:33;;;;;;;80.43;37.33;;;;;;;;;;5114746;28;20385;-85
2022/03/16 07:56:38;;;;;;;66.20;32.80;;;;;;;;;;5113811;28;20048;-85
2022/03/16 07:59:23;;;;;;;70.13;33.45;;;;;;;;;;5113715;28;20039;-85
2022/03/16 08:02:08;;;;;;;67.28;32.75;;;;;;;;;;5113997;28;20465;-85
2022/03/16 08:04:57;;;;;;;70.80;29.27;;;;;;;;;;5113766;28;20044;-85
2022/03/16 08:07:43;;;;;;;65.53;27.50;;;;;;;;;;5113653;28;20039;-85
2022/03/16 08:10:28;;;;;;;70.65;28.67;;;;;;;;;;5113543;28;20044;-85
2022/03/16 08:13:14;;;;;;;71.55;37.63;;;;;;;;;;5105742;28;20051;-85
2022/03/16 08:15:59;;;;;;;70.30;33.45;;;;;;;;;;5113428;28;20048;-85
2022/03/16 08:18:45;;;;;;;70.75;37.88;;;;;;;;;;5113645;28;20476;-85
2022/03/16 08:21:31;;;;;;;81.55;40.03;;;;;;;;;;5113564;28;20043;-85
2022/03/16 08:24:17;;;;;;;80.32;37.83;;;;;;;;;;5114242;28;20040;-86
2022/03/16 08:27:03;;;;;;;74.93;32.88;;;;;;;;;;5117349;28;20039;-86
2022/03/16 08:29:50;;;;;;;62.60;29.48;;;;;;;;;;5117129;28;20036;-87
2022/03/16 08:32:35;;;;;;;65.70;32.22;;;;;;;;;;5117071;28;20048;-86
2022/03/16 08:35:22;;;;;;;65.60;31.40;;;;;;;;;;5117399;28;20044;-86
2022/03/16 08:38:07;;;;;;;51.08;28.48;;;;;;;;;;5101835;28;20397;-86
2022/03/16 08:40:53;;;;;;;54.90;28.67;;;;;;;;;;5116798;28;20065;-86
2022/03/16 08:43:38;;;;;;;54.40;29.67;;;;;;;;;;5116656;28;20040;-86
2022/03/16 08:46:24;;;;;;;50.15;26.08;;;;;;;;;;5136631;28;20020;-83
2022/03/16 08:49:10;;;;;;;49.45;27.92;;;;;;;;;;5126215;28;20040;-85
2022/03/16 08:51:57;;;;;;;50.25;27.20;;;;;;;;;;5117116;28;20044;-78
2022/03/16 08:54:42;;;;;;;50.53;27.02;;;;;;;;;;5116579;28;20043;-77
2022/03/16 08:57:28;;;;;;;56.60;32.78;;;;;;;;;;5116856;28;20476;-80
2022/03/16 09:00:15;;;;;;;47.88;29.20;;;;;;;;;;5116598;28;20044;-80
2022/03/16 09:03:02;;;;;;;51.35;25.90;;;;;;;;;;5116335;28;20043;-81
2022/03/16 09:05:48;;;;;;;52.15;27.92;;;;;;;;;;5116156;28;20044;-79
2022/03/16 09:08:34;;;;;;;48.97;26.23;;;;;;;;;;5116305;28;20420;-76
2022/03/16 09:11:19;;;;;;;49.13;26.55;;;;;;;;;;5123007;28;20036;-79
2022/03/16 09:14:05;;;;;;;44.25;25.30;;;;;;;;;;5116064;28;20052;-80
2022/03/16 09:16:51;;;;;;;57.17;24.63;;;;;;;;;;5116051;28;20396;-78
2022/03/16 09:19:36;;;;;;;51.75;26.85;;;;;;;;;;5114382;28;20081;-76
2022/03/16 09:22:22;;;;;;;53.85;27.30;;;;;;;;;;5114585;28;20048;-79
2022/03/16 09:25:08;;;;;;;60.85;29.45;;;;;;;;;;5114615;28;20393;-80
2022/03/16 09:27:53;;;;;;;78.75;31.40;;;;;;;;;;5114960;28;20048;-79
2022/03/16 09:30:39;;;;;;;62.72;31.95;;;;;;;;;;5114468;28;20485;-79
2022/03/16 09:33:24;;;;;;;52.92;28.80;;;;;;;;;;5115223;28;20048;-79
2022/03/16 09:36:10;;;;;;;60.22;30.90;;;;;;;;;;5114669;28;20048;-79
2022/03/16 09:38:55;;;;;;;53.97;26.63;;;;;;;;;;5115263;28;20039;-79
2022/03/16 09:41:41;;;;;;;44.15;24.83;;;;;;;;;;5114623;28;20039;-78
2022/03/16 09:44:30;;;;;;;50.38;26.35;;;;;;;;;;5114464;28;20048;-78
2022/03/16 09:47:17;;;;;;;42.17;22.15;;;;;;;;;;5122374;28;20039;-77
2022/03/16 09:50:03;;;;;;;38.75;16.67;;;;;;;;;;5121641;28;20035;-78
2022/03/16 09:52:48;;;;;;;38.30;19.67;;;;;;;;;;5115181;28;20063;-78
2022/03/16 09:55:34;;;;;;;34.35;18.00;;;;;;;;;;5114729;28;20043;-78
2022/03/16 09:58:20;;;;;;;36.38;21.58;;;;;;;;;;5115371;28;20044;-78
2022/03/16 10:01:05;;;;;;;39.20;22.88;;;;;;;;;;5115055;28;20036;-80
2022/03/16 10:03:51;;;;;;;51.97;23.88;;;;;;;;;;5114747;28;20395;-80
2022/03/16 10:06:37;;;;;;;39.80;20.00;;;;;;;;;;5115606;28;20052;-79
2022/03/16 10:15:32;;;;;;;51.05;26.17;;;;;;;;;;5114632;28;20036;-80
2022/03/16 10:18:20;;;;;;;53.75;28.45;;;;;;;;;;5114813;28;20361;-78
2022/03/16 10:21:06;;;;;;;54.80;27.63;;;;;;;;;;5115219;28;20040;-79
2022/03/16 10:23:59;;;;;;;55.47;26.20;;;;;;;;;;5114715;28;20380;-79
2022/03/16 10:26:53;;;;;;;44.60;23.25;;;;;;;;;;5115430;28;20115;-79
2022/03/16 10:29:38;;;;;;;35.83;18.70;;;;;;;;;;5106463;28;20410;-79
2022/03/16 10:32:24;;;;;;;36.30;17.48;;;;;;;;;;5121209;28;20047;-79
2022/03/16 10:35:11;;;;;;;38.03;17.88;;;;;;;;;;5114432;28;20040;-77
2022/03/16 10:38:16;;;;;;;33.25;15.88;;;;;;;;;;5099170;28;20413;-78
2022/03/16 10:46:34;;;;;;;35.83;17.65;;;;;;;;;;5121694;28;20047;-77
2022/03/16 10:47:26;;;;;;;34.92;14.55;;;;;;;;;;5113975;28;20039;-78
2022/03/16 10:50:11;;;;;;;20.55;12.55;;;;;;;;;;5114977;28;20048;-77
2022/03/16 10:52:57;;;;;;;37.78;13.45;;;;;;;;;;5114230;28;20059;-77
2022/03/16 10:55:44;;;;;;;27.95;12.88;;;;;;;;;;5114780;28;20051;-77
2022/03/16 10:58:30;;;;;;;38.42;16.30;;;;;;;;;;5121246;28;20489;-79
2022/03/16 11:01:17;;;;;;;22.33;11.18;;;;;;;;;;5121375;28;20040;-83
2022/03/16 11:04:04;;;;;;;24.40;10.70;;;;;;;;;;5119168;28;20393;-78
2022/03/16 11:06:49;;;;;;;32.83;12.05;;;;;;;;;;5122903;28;20065;-80
2022/03/16 11:09:36;;;;;;;33.95;16.02;;;;;;;;;;5113290;28;20044;-79
2022/03/16 11:15:25;;;;;;;39.20;15.85;;;;;;;;;;5113532;28;20392;-78
2022/03/16 11:18:11;;;;;;;41.55;18.35;;;;;;;;;;5113585;28;20047;-78
2022/03/16 11:21:05;;;;;;;36.88;16.30;;;;;;;;;;5120837;28;20040;-80
2022/03/16 11:27:22;;;;;;;34.13;11.15;;;;;;;;;;5120816;28;20031;-79
2022/03/16 11:30:32;;;;;;;25.58;12.63;;;;;;;;;;5113873;28;20040;-79
2022/03/16 11:33:18;;;;;;;29.20;13.20;;;;;;;;;;5120812;28;20490;-80
2022/03/16 11:36:05;;;;;;;18.60;10.18;;;;;;;;;;5114252;28;20040;-80
2022/03/16 11:38:51;;;;;;;26.80;11.73;;;;;;;;;;5113696;28;20040;-79
2022/03/16 11:41:38;;;;;;;27.48;9.93;;;;;;;;;;5105474;28;20044;-80
2022/03/16 11:44:26;;;;;;;36.38;13.98;;;;;;;;;;5098032;28;20047;-81
2022/03/16 11:47:16;;;;;;;19.58;11.20;;;;;;;;;;5113730;28;20396;-79
2022/03/16 11:50:08;;;;;;;41.70;21.77;;;;;;;;;;5113975;28;20051;-79
2022/03/16 11:53:04;;;;;;;22.83;9.48;;;;;;;;;;5113591;28;20044;-81
2022/03/16 11:55:50;;;;;;;18.88;8.07;;;;;;;;;;5113694;28;20044;-79
2022/03/16 11:58:39;;;;;;;39.28;16.35;;;;;;;;;;5121387;28;20396;-80
2022/03/16 12:01:30;;;;;;;29.00;13.63;;;;;;;;;;5117934;28;20043;-79
2022/03/16 12:04:21;;;;;;;17.00;9.05;;;;;;;;;;5117484;28;20043;-80
2022/03/16 12:07:14;;;;;;;22.75;11.25;;;;;;;;;;5117572;28;20048;-79
2022/03/16 12:10:06;;;;;;;29.33;12.45;;;;;;;;;;5117712;28;20036;-79
2022/03/16 12:12:57;;;;;;;28.23;15.43;;;;;;;;;;5124017;28;20047;-79
2022/03/16 12:15:47;;;;;;;31.88;11.85;;;;;;;;;;5116928;28;20040;-79
2022/03/16 12:18:39;;;;;;;22.60;11.80;;;;;;;;;;5117412;28;20047;-81
2022/03/16 12:21:30;;;;;;;42.47;15.00;;;;;;;;;;5116899;28;20036;-79
2022/03/16 12:30:50;;;;;;;17.83;8.00;;;;;;;;;;5116961;28;20047;-77
2022/03/16 12:33:39;;;;;;;21.15;9.02;;;;;;;;;;5117427;28;20039;-79
2022/03/16 12:36:30;;;;;;;25.92;8.65;;;;;;;;;;5124106;28;20043;-81
2022/03/16 12:39:16;;;;;;;27.65;9.00;;;;;;;;;;5124014;28;20040;-80
2022/03/16 12:45:09;;;;;;;26.00;7.65;;;;;;;;;;5116732;28;20495;-80
2022/03/16 12:48:10;;;;;;;33.63;6.72;;;;;;;;;;5116580;28;20036;-78
2022/03/16 12:50:55;;;;;;;20.83;6.90;;;;;;;;;;5116867;28;20039;-79
2022/03/16 12:53:45;;;;;;;18.88;6.40;;;;;;;;;;5123846;28;20055;-80
2022/03/16 12:56:32;;;;;;;21.60;7.57;;;;;;;;;;5116623;28;20040;-79
2022/03/16 12:59:22;;;;;;;31.10;8.68;;;;;;;;;;5116849;28;20040;-79
2022/03/16 13:02:12;;;;;;;28.40;7.18;;;;;;;;;;5116647;28;20051;-79
2022/03/16 13:04:59;;;;;;;16.05;7.03;;;;;;;;;;5116750;28;20051;-78
2022/03/16 13:07:45;;;;;;;21.85;7.40;;;;;;;;;;5116568;28;20039;-79
2022/03/16 13:11:14;;;;;;;34.15;6.97;;;;;;;;;;5115667;28;20485;-80
2022/03/16 13:13:37;;;;;;;12.75;5.45;;;;;;;;;;5116765;28;20044;-81
2022/03/16 13:16:36;;;;;;;12.30;6.15;;;;;;;;;;5116340;28;20056;-81
2022/03/16 13:19:30;;;;;;;16.92;6.22;;;;;;;;;;5123786;28;20055;-79
2022/03/16 13:22:18;;;;;;;16.73;7.05;;;;;;;;;;5134112;28;20044;-79
2022/03/16 13:25:04;;;;;;;14.77;6.28;;;;;;;;;;5117214;28;20044;-77
2022/03/16 13:27:51;;;;;;;25.27;8.63;;;;;;;;;;5123640;28;20043;-78
2022/03/16 13:30:37;;;;;;;14.43;6.90;;;;;;;;;;5116188;28;20043;-77
2022/03/16 13:33:27;;;;;;;11.93;6.95;;;;;;;;;;5116310;28;20044;-78
2022/03/16 13:36:13;;;;;;;15.52;5.70;;;;;;;;;;5122672;28;20044;-80
2022/03/16 13:39:15;;;;;;;13.70;6.50;;;;;;;;;;5122570;28;20039;-80
2022/03/16 13:42:12;;;;;;;10.35;5.18;;;;;;;;;;5116312;28;20365;-81
2022/03/16 13:45:23;;;;;;;16.85;6.80;;;;;;;;;;5115192;28;20416;-80
2022/03/16 13:48:22;;;;;;;15.52;8.18;;;;;;;;;;5116127;28;20048;-80
2022/03/16 13:51:08;;;;;;;28.45;13.43;;;;;;;;;;5115330;28;20043;-79
2022/03/16 13:53:53;;;;;;;23.40;11.07;;;;;;;;;;5114599;28;20408;-78
2022/03/16 13:56:38;;;;;;;20.85;7.28;;;;;;;;;;5114743;28;20051;-78
2022/03/16 13:59:28;;;;;;;14.48;5.78;;;;;;;;;;5115285;28;20036;-81
2022/03/16 14:02:22;;;;;;;32.72;10.05;;;;;;;;;;5114446;28;20481;-81
2022/03/16 14:05:17;;;;;;;19.63;9.23;;;;;;;;;;5114409;28;20051;-80
2022/03/16 14:08:07;;;;;;;27.55;11.90;;;;;;;;;;5114706;28;20404;-78
2022/03/16 14:10:56;;;;;;;21.75;8.68;;;;;;;;;;5114936;28;20043;-81
2022/03/16 14:13:43;;;;;;;18.58;7.22;;;;;;;;;;5115021;28;20044;-79
2022/03/16 14:16:34;;;;;;;19.60;8.82;;;;;;;;;;5121946;28;20051;-80
2022/03/16 14:19:37;;;;;;;11.75;6.65;;;;;;;;;;5121606;28;20485;-79
2022/03/16 14:22:23;;;;;;;16.05;7.90;;;;;;;;;;5114000;28;20032;-80
2022/03/16 14:25:18;;;;;;;17.73;7.60;;;;;;;;;;5115304;28;20044;-80
2022/03/16 14:28:13;;;;;;;17.90;7.40;;;;;;;;;;5114978;28;20040;-81
2022/03/16 14:31:00;;;;;;;19.98;9.23;;;;;;;;;;5114821;28;20032;-79
2022/03/16 14:33:45;;;;;;;23.23;9.23;;;;;;;;;;5114690;28;20051;-80
2022/03/16 14:36:32;;;;;;;23.75;13.15;;;;;;;;;;5114782;28;20385;-78
2022/03/16 14:39:18;;;;;;;28.85;15.15;;;;;;;;;;5114288;28;20044;-79
2022/03/16 14:42:05;;;;;;;186.88;93.63;;;;;;;;;;5121547;28;20051;-79
2022/03/16 14:44:51;;;;;;;44.03;22.80;;;;;;;;;;5114233;28;20045;-78
2022/03/16 14:47:36;;;;;;;53.97;32.28;;;;;;;;;;5114630;28;20039;-80
2022/03/16 14:50:23;;;;;;;63.08;38.33;;;;;;;;;;5120833;28;20044;-79
2022/03/16 14:53:10;;;;;;;83.65;54.72;;;;;;;;;;5114301;28;20047;-79
2022/03/16 14:55:57;;;;;;;39.47;25.52;;;;;;;;;;5114673;28;20484;-80
2022/03/16 14:58:42;;;;;;;36.03;20.85;;;;;;;;;;5121189;28;20043;-80
2022/03/16 15:01:28;;;;;;;32.30;18.70;;;;;;;;;;5120954;28;20048;-78
2022/03/16 15:04:13;;;;;;;40.25;20.02;;;;;;;;;;5113943;28;20043;-78
2022/03/16 15:06:59;;;;;;;87.00;34.80;;;;;;;;;;5114006;28;20047;-78
2022/03/16 15:09:45;;;;;;;86.07;37.10;;;;;;;;;;5113536;28;20047;-79
2022/03/16 15:12:33;;;;;;;109.18;48.78;;;;;;;;;;5114034;28;20048;-81
2022/03/16 15:15:19;;;;;;;30.38;16.17;;;;;;;;;;5114425;28;20377;-83
2022/03/16 15:18:05;;;;;;;23.67;10.77;;;;;;;;;;5114144;28;20047;-80
2022/03/16 15:20:52;;;;;;;14.15;8.40;;;;;;;;;;5121952;28;20039;-81
2022/03/16 15:23:37;;;;;;;25.02;13.52;;;;;;;;;;5115734;28;20048;-81
2022/03/16 15:26:23;;;;;;;27.10;14.60;;;;;;;;;;5114098;28;20043;-80
2022/03/16 15:29:09;;;;;;;29.85;15.25;;;;;;;;;;5114154;28;20040;-82
2022/03/16 15:31:55;;;;;;;22.92;12.55;;;;;;;;;;5098202;28;20047;-83
2022/03/16 15:34:41;;;;;;;27.15;13.77;;;;;;;;;;5116996;28;20047;-80
2022/03/16 15:37:28;;;;;;;22.23;12.70;;;;;;;;;;5118358;28;20051;-81
2022/03/16 15:43:16;;;;;;;29.65;16.50;;;;;;;;;;5119591;28;20400;-81
2022/03/16 15:46:02;;;;;;;34.13;20.63;;;;;;;;;;5119318;28;20408;-79
2022/03/16 15:48:48;;;;;;;65.57;35.45;;;;;;;;;;5104117;28;20488;-79
2022/03/16 15:51:33;;;;;;;48.53;29.77;;;;;;;;;;5118703;28;20493;-78
2022/03/16 15:54:21;;;;;;;48.60;30.35;;;;;;;;;;5119899;28;20044;-77
2022/03/16 15:57:08;;;;;;;66.53;33.70;;;;;;;;;;5118242;28;20044;-77
2022/03/16 15:59:53;;;;;;;50.95;31.00;;;;;;;;;;5118666;28;20039;-78
2022/03/16 16:02:38;;;;;;;60.15;35.17;;;;;;;;;;5119653;28;20048;-83
2022/03/16 16:05:24;;;;;;;64.05;33.35;;;;;;;;;;5123906;28;20052;-82
2022/03/16 16:08:10;;;;;;;76.47;37.97;;;;;;;;;;5117648;28;20039;-79
2022/03/16 16:11:08;;;;;;;78.55;41.58;;;;;;;;;;5123827;28;20035;-79
2022/03/16 16:13:54;;;;;;;109.65;56.80;;;;;;;;;;5116851;28;20047;-79
2022/03/16 16:16:44;;;;;;;94.82;52.05;;;;;;;;;;5117347;28;20043;-78
2022/03/16 16:19:30;;;;;;;96.80;50.83;;;;;;;;;;5117181;28;20492;-78
2022/03/16 16:22:15;;;;;;;96.75;51.95;;;;;;;;;;5117078;28;20397;-78
2022/03/16 16:25:00;;;;;;;101.45;54.83;;;;;;;;;;5116469;28;20044;-78
2022/03/16 16:27:46;;;;;;;147.90;73.53;;;;;;;;;;5123809;28;20048;-78
2022/03/16 16:30:33;;;;;;;149.57;76.63;;;;;;;;;;5116978;28;20055;-78
2022/03/16 16:33:20;;;;;;;76.55;41.15;;;;;;;;;;5116786;28;20051;-82
2022/03/16 16:36:11;;;;;;;69.93;34.85;;;;;;;;;;5116849;28;20032;-83
2022/03/16 16:38:57;;;;;;;118.90;55.03;;;;;;;;;;5116665;28;20039;-83